This is the latest recevied weather packets stored in our database for station/object K5FEP. If no packets are shown the sender has not sent any weather packets the latest 10 day(s).
| Time | Temp. | Humidity | Pressure | Rain* | Wind** | Luminosity | Snow |
|---|---|---|---|---|---|---|---|
| 1777328174 | 21.11° C | 36% | 1020.9 hPa | 0 mm | - | 199 W/m² | - |
| 1777327872 | 21.11° C | 37% | 1020.8 hPa | 0 mm | - | 223 W/m² | - |
| 1777327569 | 21.67° C | 36% | 1020.7 hPa | 0 mm | - | 242 W/m² | - |
| 1777327266 | 21.11° C | 35% | 1020.7 hPa | 0 mm | - | 261 W/m² | - |
| 1777326963 | 21.11° C | 36% | 1020.7 hPa | 0 mm | - | 282 W/m² | - |
| 1777326661 | 21.11° C | 36% | 1020.7 hPa | 0 mm | - | 301 W/m² | - |
| 1777326357 | 21.11° C | 35% | 1020.5 hPa | 0 mm | - | 320 W/m² | - |
| 1777326055 | 21.67° C | 35% | 1020.7 hPa | 0 mm | - | 339 W/m² | - |
| 1777325753 | 21.11° C | 35% | 1020.6 hPa | 0 mm | - | 357 W/m² | - |
| 1777325451 | 21.67° C | 35% | 1020.6 hPa | 0 mm | - | 377 W/m² | - |
| 1777325148 | 21.11° C | 35% | 1020.8 hPa | 0 mm | - | 398 W/m² | - |
| 1777324844 | 21.11° C | 35% | 1020.8 hPa | 0 mm | - | 417 W/m² | - |
| 1777324543 | 21.11° C | 35% | 1020.9 hPa | 0 mm | - | 436 W/m² | - |
| 1777324239 | 21.67° C | 34% | 1020.7 hPa | 0 mm | - | 458 W/m² | - |
| 1777323938 | 21.67° C | 34% | 1021 hPa | 0 mm | - | 471 W/m² | - |
| 1777323634 | 21.67° C | 34% | 1020.9 hPa | 0 mm | - | 492 W/m² | - |
| 1777323331 | 21.11° C | 36% | 1021.1 hPa | 0 mm | - | 510 W/m² | - |
| 1777323030 | 21.11° C | 33% | 1021 hPa | 0 mm | - | 530 W/m² | - |
| 1777322727 | 21.11° C | 33% | 1021.2 hPa | 0 mm | - | 549 W/m² | - |
| 1777322425 | 21.67° C | 34% | 1021.3 hPa | 0 mm | - | 567 W/m² | - |
| 1777322121 | 21.11° C | 34% | 1021 hPa | 0 mm | - | 585 W/m² | - |
| 1777321818 | 21.67° C | 34% | 1021.2 hPa | 0 mm | - | 603 W/m² | - |
| 1777321515 | 21.67° C | 34% | 1021.6 hPa | 0 mm | - | 566 W/m² | - |
| 1777321212 | 21.67° C | 32% | 1021.3 hPa | 0 mm | - | 638 W/m² | - |
| 1777320909 | 21.11° C | 34% | 1021.4 hPa | 0 mm | - | 658 W/m² | - |
* Rain latest hour (hover to see other rain measurements)
** Current wind speed in m/s (hover to see current wind gust speed)